createdAt,value
2018-07-09T00:00:28.785Z,14.52
2018-07-09T00:01:37.697Z,14.49
2018-07-09T00:02:46.332Z,14.49
2018-07-09T00:03:54.985Z,14.49
2018-07-09T00:05:03.895Z,14.51
2018-07-09T00:06:12.575Z,14.49
2018-07-09T00:07:21.478Z,14.45
2018-07-09T00:08:30.128Z,14.44
2018-07-09T00:09:38.773Z,14.37
2018-07-09T00:10:47.432Z,14.51
2018-07-09T00:11:56.067Z,14.44
2018-07-09T00:13:04.983Z,14.43
2018-07-09T00:14:13.887Z,14.28
2018-07-09T00:15:22.541Z,14.33
2018-07-09T00:16:31.184Z,14.38
2018-07-09T00:17:39.825Z,14.26
2018-07-09T00:18:48.469Z,14.28
2018-07-09T00:19:57.108Z,14.26
2018-07-09T00:21:05.764Z,14.25
2018-07-09T00:22:14.676Z,14.33
2018-07-09T00:23:23.326Z,14.23
2018-07-09T00:24:32.490Z,14.22
2018-07-09T00:25:41.144Z,14.2
2018-07-09T00:26:49.784Z,14.22
2018-07-09T00:27:58.434Z,14.2
2018-07-09T00:29:07.072Z,14.18
2018-07-09T00:30:15.728Z,14.16
2018-07-09T00:31:24.371Z,14.15
2018-07-09T00:32:33.284Z,14.07
2018-07-09T00:33:41.919Z,14.07
2018-07-09T00:34:50.568Z,14.01
2018-07-09T00:35:59.217Z,14.07
2018-07-09T00:37:07.865Z,14.08
2018-07-09T00:38:16.513Z,14.13
2018-07-09T00:39:25.147Z,14.07
2018-07-09T00:40:33.801Z,13.97
2018-07-09T00:41:42.706Z,14
2018-07-09T00:42:51.361Z,14.03
2018-07-09T00:43:59.997Z,13.98
2018-07-09T00:45:08.647Z,13.98
2018-07-09T00:46:17.288Z,13.89
2018-07-09T00:47:25.942Z,13.87
2018-07-09T00:48:34.576Z,13.87
2018-07-09T00:49:43.226Z,13.78
2018-07-09T00:50:51.879Z,13.8
2018-07-09T00:52:00.848Z,13.82
2018-07-09T00:53:09.491Z,13.86
2018-07-09T00:54:18.399Z,13.73
2018-07-09T00:55:27.039Z,13.73
2018-07-09T00:56:35.675Z,13.76
2018-07-09T00:57:44.332Z,13.71
2018-07-09T00:58:52.972Z,13.7
2018-07-09T01:00:01.616Z,13.65
2018-07-09T01:01:10.265Z,13.7
2018-07-09T01:02:19.176Z,13.73
2018-07-09T01:03:28.084Z,13.71
2018-07-09T01:04:36.729Z,13.68
2018-07-09T01:05:45.627Z,13.73
2018-07-09T01:06:54.275Z,13.7
2018-07-09T01:08:02.918Z,13.75
2018-07-09T01:09:12.086Z,13.6
2018-07-09T01:10:20.735Z,13.62
2018-07-09T01:11:29.641Z,13.61
2018-07-09T01:12:38.548Z,13.61
2018-07-09T01:13:47.460Z,13.55
2018-07-09T01:14:56.108Z,13.58
2018-07-09T01:16:04.746Z,13.64
2018-07-09T01:17:13.389Z,13.6
2018-07-09T01:18:22.034Z,13.47
2018-07-09T01:19:30.681Z,13.45
2018-07-09T01:20:39.591Z,13.52
2018-07-09T01:21:48.241Z,13.45
2018-07-09T01:22:56.883Z,13.45
2018-07-09T01:24:05.532Z,13.4
2018-07-09T01:25:14.174Z,13.43
2018-07-09T01:26:22.823Z,13.39
2018-07-09T01:27:31.465Z,13.39
2018-07-09T01:28:40.117Z,13.36
2018-07-09T01:29:48.758Z,13.33
2018-07-09T01:30:57.403Z,13.28
2018-07-09T01:32:06.043Z,13.3
2018-07-09T01:33:14.949Z,13.26
2018-07-09T01:34:23.599Z,13.28
2018-07-09T01:35:32.243Z,13.21
2018-07-09T01:36:40.889Z,13.27
2018-07-09T01:37:49.792Z,13.19
2018-07-09T01:38:58.442Z,13.28
2018-07-09T01:40:07.087Z,13.17
2018-07-09T01:41:15.732Z,13.13
2018-07-09T01:42:24.371Z,13.23
2018-07-09T01:43:33.021Z,13.2
2018-07-09T01:44:41.661Z,13.2
2018-07-09T01:45:50.570Z,13.16
2018-07-09T01:46:59.211Z,13.17
2018-07-09T01:48:07.858Z,13.16
2018-07-09T01:49:16.500Z,13.12
2018-07-09T01:50:25.148Z,13.12
2018-07-09T01:51:34.054Z,13.08
2018-07-09T01:52:42.695Z,13.01
2018-07-09T01:53:51.335Z,13.03
2018-07-09T01:54:59.980Z,13.01
2018-07-09T01:56:08.628Z,13.01
2018-07-09T01:57:17.277Z,12.99
2018-07-09T01:58:25.914Z,12.81
2018-07-09T01:59:34.563Z,12.94
2018-07-09T02:00:43.197Z,12.88
2018-07-09T02:01:52.118Z,12.88
2018-07-09T02:03:01.023Z,12.84
2018-07-09T02:04:09.932Z,12.88
2018-07-09T02:05:18.566Z,12.84
2018-07-09T02:06:27.212Z,12.76
2018-07-09T02:07:35.862Z,12.78
2018-07-09T02:08:44.505Z,12.75
2018-07-09T02:09:53.150Z,12.76
2018-07-09T02:11:01.785Z,12.72
2018-07-09T02:12:10.970Z,12.75
2018-07-09T02:13:19.609Z,12.69
2018-07-09T02:14:28.305Z,12.68
2018-07-09T02:15:36.894Z,12.69
2018-07-09T02:16:45.541Z,12.72
2018-07-09T02:17:54.179Z,12.7
2018-07-09T02:19:02.833Z,12.63
2018-07-09T02:20:11.490Z,12.63
2018-07-09T02:21:20.123Z,12.63
2018-07-09T02:22:28.763Z,12.58
2018-07-09T02:23:37.417Z,12.62
2018-07-09T02:24:46.058Z,12.63
2018-07-09T02:25:54.699Z,12.65
2018-07-09T02:27:03.350Z,12.61
2018-07-09T02:28:11.982Z,12.61
2018-07-09T02:29:20.635Z,12.53
2018-07-09T02:30:30.066Z,12.65
2018-07-09T02:31:38.977Z,12.58
2018-07-09T02:32:47.615Z,12.65
2018-07-09T02:33:56.271Z,12.53
2018-07-09T02:35:04.919Z,12.57
2018-07-09T02:36:13.565Z,12.51
2018-07-09T02:37:22.196Z,12.57
2018-07-09T02:38:30.851Z,12.51
2018-07-09T02:39:39.756Z,12.5
2018-07-09T02:40:48.408Z,12.53
2018-07-09T02:41:57.041Z,12.55
2018-07-09T02:43:05.952Z,12.57
2018-07-09T02:44:14.891Z,12.48
2018-07-09T02:45:23.511Z,12.53
2018-07-09T02:46:32.424Z,12.44
2018-07-09T02:47:41.068Z,12.43
2018-07-09T02:48:49.718Z,12.44
2018-07-09T02:49:58.634Z,12.4
2018-07-09T02:51:07.293Z,12.39
2018-07-09T02:52:16.204Z,12.36
2018-07-09T02:53:24.853Z,12.4
2018-07-09T02:54:33.491Z,12.36
2018-07-09T02:55:42.145Z,12.35
2018-07-09T02:56:51.050Z,12.4
2018-07-09T02:57:59.700Z,12.39
2018-07-09T02:59:08.341Z,12.36
2018-07-09T03:00:16.993Z,12.4
2018-07-09T03:01:25.897Z,12.28
2018-07-09T03:02:34.550Z,12.29
2018-07-09T03:03:43.458Z,12.29
2018-07-09T03:04:52.372Z,12.37
2018-07-09T03:06:01.121Z,12.26
2018-07-09T03:07:10.092Z,12.36
2018-07-09T03:08:18.882Z,12.32
2018-07-09T03:09:27.625Z,12.29
2018-07-09T03:10:36.277Z,12.29
2018-07-09T03:11:45.062Z,12.28
2018-07-09T03:12:53.862Z,12.29
2018-07-09T03:14:02.507Z,12.3
2018-07-09T03:15:11.430Z,12.29
2018-07-09T03:16:20.076Z,12.33
2018-07-09T03:17:28.983Z,12.32
2018-07-09T03:18:37.894Z,12.23
2018-07-09T03:19:46.536Z,12.29
2018-07-09T03:20:55.185Z,12.15
2018-07-09T03:22:03.832Z,12.25
2018-07-09T03:23:13.007Z,12.18
2018-07-09T03:24:21.645Z,12.28
2018-07-09T03:25:30.293Z,12.23
2018-07-09T03:26:38.930Z,12.26
2018-07-09T03:27:47.576Z,12.2
2018-07-09T03:28:56.216Z,12.12
2018-07-09T03:30:05.141Z,12.14
2018-07-09T03:31:14.586Z,12.14
2018-07-09T03:32:23.235Z,12.15
2018-07-09T03:33:31.873Z,12.28
2018-07-09T03:34:40.517Z,12.26
2018-07-09T03:35:49.160Z,12.15
2018-07-09T03:36:57.813Z,12.11
2018-07-09T03:38:06.453Z,12.25
2018-07-09T03:39:15.097Z,12.14
2018-07-09T03:40:23.743Z,12.12
2018-07-09T03:41:32.384Z,12.18
2018-07-09T03:42:41.030Z,12.18
2018-07-09T03:43:49.679Z,12.12
2018-07-09T03:44:58.318Z,12.12
2018-07-09T03:46:06.957Z,12.2
2018-07-09T03:47:15.603Z,12.11
2018-07-09T03:48:24.519Z,12.25
2018-07-09T03:49:33.683Z,12.26
2018-07-09T03:50:42.327Z,12.21
2018-07-09T03:51:50.977Z,12.17
2018-07-09T03:52:59.616Z,12.29
2018-07-09T03:54:08.258Z,12.28
2018-07-09T03:55:16.903Z,12.28
2018-07-09T03:56:25.543Z,12.21
2018-07-09T03:57:34.187Z,12.3
2018-07-09T03:58:42.825Z,12.29
2018-07-09T03:59:51.467Z,12.26
2018-07-09T04:01:00.116Z,12.26
2018-07-09T04:02:08.810Z,12.32
2018-07-09T04:03:17.413Z,12.33
2018-07-09T04:04:26.310Z,12.29
2018-07-09T04:05:34.963Z,12.36
2018-07-09T04:06:43.607Z,12.28
2018-07-09T04:07:52.514Z,12.35
2018-07-09T04:09:01.423Z,12.36
2018-07-09T04:10:10.067Z,12.39
2018-07-09T04:11:18.710Z,12.36
2018-07-09T04:12:27.356Z,12.43
2018-07-09T04:13:35.996Z,12.43
2018-07-09T04:14:44.696Z,12.47
2018-07-09T04:15:53.289Z,12.54
2018-07-09T04:17:01.936Z,12.45
2018-07-09T04:18:10.579Z,12.53
2018-07-09T04:19:19.217Z,12.43
2018-07-09T04:20:27.863Z,12.53
2018-07-09T04:21:36.508Z,12.61
2018-07-09T04:22:45.153Z,12.54
2018-07-09T04:23:53.797Z,12.54
2018-07-09T04:25:02.704Z,12.5
2018-07-09T04:26:11.357Z,12.5
2018-07-09T04:27:20.343Z,12.54
2018-07-09T04:28:28.987Z,12.54
2018-07-09T04:29:37.633Z,12.54
2018-07-09T04:30:46.274Z,12.62
2018-07-09T04:31:54.916Z,12.58
2018-07-09T04:33:03.560Z,12.65
2018-07-09T04:34:12.249Z,12.61
2018-07-09T04:35:21.106Z,12.63
2018-07-09T04:36:29.745Z,12.68
2018-07-09T04:37:38.414Z,12.8
2018-07-09T04:38:47.039Z,12.78
2018-07-09T04:39:55.684Z,12.81
2018-07-09T04:41:04.323Z,12.81
2018-07-09T04:42:12.973Z,12.86
2018-07-09T04:43:21.686Z,12.83
2018-07-09T04:44:30.266Z,12.87
2018-07-09T04:45:39.169Z,13.01
2018-07-09T04:46:47.819Z,12.94
2018-07-09T04:47:56.462Z,13.01
2018-07-09T04:49:05.109Z,12.98
2018-07-09T04:50:13.750Z,13.01
2018-07-09T04:51:22.662Z,12.98
2018-07-09T04:52:31.834Z,13.13
2018-07-09T04:53:40.483Z,13.16
2018-07-09T04:54:49.127Z,13.2
2018-07-09T04:55:57.767Z,13.3
2018-07-09T04:57:06.418Z,13.37
2018-07-09T04:58:15.056Z,13.4
2018-07-09T04:59:23.712Z,13.43
2018-07-09T05:00:32.871Z,13.49
2018-07-09T05:01:41.519Z,13.52
2018-07-09T05:02:50.160Z,13.58
2018-07-09T05:03:58.812Z,13.57
2018-07-09T05:05:07.716Z,13.7
2018-07-09T05:06:16.367Z,13.73
2018-07-09T05:07:25.008Z,13.73
2018-07-09T05:08:33.663Z,13.67
2018-07-09T05:09:42.302Z,13.67
2018-07-09T05:10:50.940Z,13.7
2018-07-09T05:11:59.591Z,13.78
2018-07-09T05:13:08.275Z,13.82
2018-07-09T05:14:16.878Z,13.79
2018-07-09T05:15:25.516Z,13.86
2018-07-09T05:16:34.166Z,13.91
2018-07-09T05:17:42.799Z,13.97
2018-07-09T05:18:51.454Z,14.04
2018-07-09T05:20:00.096Z,14.04
2018-07-09T05:21:08.742Z,14.07
2018-07-09T05:22:17.379Z,14.12
2018-07-09T05:23:26.311Z,14.2
2018-07-09T05:24:35.215Z,14.23
2018-07-09T05:25:43.863Z,14.33
2018-07-09T05:26:52.496Z,14.36
2018-07-09T05:28:01.142Z,14.36
2018-07-09T05:29:10.061Z,14.41
2018-07-09T05:30:18.712Z,14.41
2018-07-09T05:31:27.620Z,14.45
2018-07-09T05:32:36.258Z,14.56
2018-07-09T05:33:44.908Z,14.62
2018-07-09T05:34:53.549Z,14.66
2018-07-09T05:36:02.201Z,14.66
2018-07-09T05:37:10.844Z,14.73
2018-07-09T05:38:19.493Z,14.87
2018-07-09T05:39:28.134Z,14.92
2018-07-09T05:40:36.790Z,14.86
2018-07-09T05:41:45.688Z,14.9
2018-07-09T05:42:54.333Z,15.02
2018-07-09T05:44:02.975Z,15.11
2018-07-09T05:45:11.627Z,15.08
2018-07-09T05:46:20.271Z,15.15
2018-07-09T05:47:28.911Z,15.17
2018-07-09T05:48:37.555Z,15.26
2018-07-09T05:49:46.198Z,15.29
2018-07-09T05:50:55.126Z,15.36
2018-07-09T05:52:04.038Z,15.39
2018-07-09T05:53:12.673Z,15.5
2018-07-09T05:54:21.314Z,15.63
2018-07-09T05:55:29.977Z,15.69
2018-07-09T05:56:38.887Z,15.84
2018-07-09T05:57:47.535Z,16.03
2018-07-09T05:58:56.223Z,16.13
2018-07-09T06:00:04.830Z,16.36
2018-07-09T06:01:13.472Z,16.57
2018-07-09T06:02:22.119Z,16.68
2018-07-09T06:03:30.764Z,16.65
2018-07-09T06:04:39.411Z,16.77
2018-07-09T06:05:48.055Z,16.84
2018-07-09T06:06:56.704Z,17.04
2018-07-09T06:08:05.359Z,17.07
2018-07-09T06:09:14.529Z,17.02
2018-07-09T06:10:23.176Z,17.14
2018-07-09T06:11:31.889Z,17.23
2018-07-09T06:12:40.477Z,17.22
2018-07-09T06:13:49.390Z,17.3
2018-07-09T06:14:58.039Z,17.42
2018-07-09T06:16:06.950Z,17.38
2018-07-09T06:17:15.605Z,17.47
2018-07-09T06:18:24.253Z,17.56
2018-07-09T06:19:32.933Z,17.46
2018-07-09T06:20:41.899Z,17.5
2018-07-09T06:21:50.549Z,17.39
2018-07-09T06:22:59.196Z,17.44
2018-07-09T06:24:08.114Z,17.39
2018-07-09T06:25:16.759Z,17.52
2018-07-09T06:26:25.404Z,17.53
2018-07-09T06:27:34.057Z,17.59
2018-07-09T06:28:42.704Z,17.63
2018-07-09T06:29:51.358Z,17.65
2018-07-09T06:31:00.003Z,17.63
2018-07-09T06:32:08.657Z,17.66
2018-07-09T06:33:17.568Z,17.63
2018-07-09T06:34:26.219Z,17.79
2018-07-09T06:35:35.127Z,17.8
2018-07-09T06:36:43.781Z,17.78
2018-07-09T06:37:52.428Z,17.84
2018-07-09T06:39:01.076Z,17.95
2018-07-09T06:40:09.717Z,17.97
2018-07-09T06:41:18.375Z,18.09
2018-07-09T06:42:27.021Z,18.06
2018-07-09T06:43:35.681Z,18
2018-07-09T06:44:44.373Z,18.16
2018-07-09T06:45:53.229Z,18.28
2018-07-09T06:47:01.878Z,18.3
2018-07-09T06:48:10.551Z,18.34
2018-07-09T06:49:19.176Z,18.24
2018-07-09T06:50:28.085Z,18.41
2018-07-09T06:51:37.263Z,18.37
2018-07-09T06:52:45.908Z,18.48
2018-07-09T06:53:54.562Z,18.53
2018-07-09T06:55:03.201Z,18.6
2018-07-09T06:56:11.854Z,18.71
2018-07-09T06:57:20.496Z,18.76
2018-07-09T06:58:29.152Z,18.79
2018-07-09T06:59:37.801Z,18.86
2018-07-09T07:00:46.446Z,18.89
2018-07-09T07:01:55.092Z,18.92
2018-07-09T07:03:03.738Z,19.04
2018-07-09T07:04:12.392Z,19.05
2018-07-09T07:05:21.036Z,19.16
2018-07-09T07:06:29.951Z,19.15
2018-07-09T07:07:38.591Z,19.23
2018-07-09T07:08:47.277Z,19.23
2018-07-09T07:09:55.894Z,19.35
2018-07-09T07:11:04.808Z,19.32
2018-07-09T07:12:13.711Z,19.44
2018-07-09T07:13:22.370Z,19.49
2018-07-09T07:14:31.021Z,19.52
2018-07-09T07:15:39.931Z,19.49
2018-07-09T07:16:48.568Z,19.47
2018-07-09T07:17:57.489Z,19.53
2018-07-09T07:19:06.674Z,19.63
2018-07-09T07:20:15.327Z,19.62
2018-07-09T07:21:24.243Z,19.52
2018-07-09T07:22:33.152Z,19.49
2018-07-09T07:23:41.808Z,19.45
2018-07-09T07:24:50.449Z,19.49
2018-07-09T07:25:59.107Z,19.45
2018-07-09T07:27:07.745Z,19.52
2018-07-09T07:28:16.403Z,19.52
2018-07-09T07:29:25.305Z,19.57
2018-07-09T07:30:33.964Z,19.59
2018-07-09T07:31:42.603Z,19.53
2018-07-09T07:32:51.370Z,19.6
2018-07-09T07:33:59.907Z,19.55
2018-07-09T07:35:08.837Z,19.47
2018-07-09T07:36:17.483Z,19.48
2018-07-09T07:37:26.126Z,19.47
2018-07-09T07:38:34.772Z,19.6
2018-07-09T07:39:43.418Z,19.66
2018-07-09T07:40:52.077Z,19.82
2018-07-09T07:42:00.717Z,19.81
2018-07-09T07:43:09.907Z,19.94
2018-07-09T07:44:18.545Z,20.08
2018-07-09T07:45:27.205Z,20.07
2018-07-09T07:46:35.851Z,20.32
2018-07-09T07:47:44.504Z,20.4
2018-07-09T07:48:53.156Z,20.52
2018-07-09T07:50:01.797Z,20.74
2018-07-09T07:51:10.784Z,20.8
2018-07-09T07:52:19.430Z,20.73
2018-07-09T07:53:28.355Z,20.68
2018-07-09T07:54:37.005Z,20.71
2018-07-09T07:55:45.656Z,20.71
2018-07-09T07:56:54.303Z,20.66
2018-07-09T07:58:02.947Z,20.59
2018-07-09T07:59:11.603Z,20.66
2018-07-09T08:00:20.249Z,20.58
2018-07-09T08:01:28.901Z,20.59
2018-07-09T08:02:37.548Z,20.64
2018-07-09T08:03:46.206Z,20.58
2018-07-09T08:04:55.112Z,20.6
2018-07-09T08:06:03.767Z,20.48
2018-07-09T08:07:12.409Z,20.4
2018-07-09T08:08:21.072Z,20.34
2018-07-09T08:09:29.737Z,20.24
2018-07-09T08:10:38.369Z,20.22
2018-07-09T08:11:51.636Z,20.18
2018-07-09T08:13:32.382Z,20.22
2018-07-09T08:14:41.655Z,20.12
2018-07-09T08:15:50.250Z,20.12
2018-07-09T08:16:58.904Z,20.11
2018-07-09T08:18:07.555Z,20.04
2018-07-09T08:19:16.217Z,19.99
2018-07-09T08:20:24.866Z,20.1
2018-07-09T08:21:33.525Z,20.08
2018-07-09T08:22:42.167Z,20.19
2018-07-09T08:23:50.821Z,20.18
2018-07-09T08:24:59.934Z,20.19
2018-07-09T08:26:08.548Z,20.18
2018-07-09T08:27:17.190Z,20.26
2018-07-09T08:28:25.856Z,20.15
2018-07-09T08:29:34.502Z,20.12
2018-07-09T08:30:43.503Z,20.27
2018-07-09T08:31:52.152Z,20.24
2018-07-09T08:33:00.799Z,20.3
2018-07-09T08:34:09.783Z,20.37
2018-07-09T08:35:18.763Z,20.46
2018-07-09T08:36:27.424Z,20.53
2018-07-09T08:37:36.069Z,20.63
2018-07-09T08:38:44.990Z,20.6
2018-07-09T08:39:53.633Z,20.56
2018-07-09T08:41:02.291Z,20.6
2018-07-09T08:42:11.527Z,20.64
2018-07-09T08:43:20.608Z,20.59
2018-07-09T08:44:29.513Z,20.63
2018-07-09T08:45:38.170Z,20.53
2018-07-09T08:46:46.815Z,20.5
2018-07-09T08:47:55.464Z,20.52
2018-07-09T08:49:04.109Z,20.6
2018-07-09T08:50:12.761Z,20.64
2018-07-09T08:51:21.411Z,20.78
2018-07-09T08:52:30.060Z,20.88
2018-07-09T08:53:38.710Z,21.04
2018-07-09T08:54:49.683Z,21.14
2018-07-09T08:56:00.529Z,21.33
2018-07-09T08:57:09.175Z,21.41
2018-07-09T08:58:17.827Z,21.68
2018-07-09T08:59:26.472Z,21.81
2018-07-09T09:00:35.124Z,21.89
2018-07-09T09:01:43.778Z,22.16
2018-07-09T09:02:52.444Z,22.18
2018-07-09T09:04:01.090Z,22.3
2018-07-09T09:05:09.739Z,22.61
2018-07-09T09:06:18.385Z,22.59
2018-07-09T09:07:27.046Z,22.76
2018-07-09T09:08:35.695Z,22.78
2018-07-09T09:09:44.348Z,22.84
2018-07-09T09:10:53.261Z,22.73
2018-07-09T09:12:01.910Z,22.76
2018-07-09T09:13:12.849Z,22.78
2018-07-09T09:14:24.253Z,22.89
2018-07-09T09:15:35.948Z,22.88
2018-07-09T09:16:46.752Z,22.83
2018-07-09T09:17:55.414Z,22.81
2018-07-09T09:19:04.065Z,22.73
2018-07-09T09:20:12.717Z,22.7
2018-07-09T09:21:21.364Z,22.71
2018-07-09T09:22:30.024Z,22.71
2018-07-09T09:23:40.828Z,22.78
2018-07-09T09:24:50.658Z,22.81
2018-07-09T09:25:59.310Z,22.89
2018-07-09T09:27:08.760Z,22.86
2018-07-09T09:28:17.413Z,22.95
2018-07-09T09:29:26.065Z,22.95
2018-07-09T09:30:34.719Z,22.95
2018-07-09T09:31:43.786Z,23.01
2018-07-09T09:32:52.421Z,22.93
2018-07-09T09:34:01.071Z,22.88
2018-07-09T09:35:09.998Z,22.88
2018-07-09T09:36:18.907Z,22.89
2018-07-09T09:37:27.652Z,22.86
2018-07-09T09:38:36.208Z,22.92
2018-07-09T09:39:44.864Z,23.07
2018-07-09T09:40:53.511Z,22.92
2018-07-09T09:42:02.435Z,23.07
2018-07-09T09:43:11.122Z,22.98
2018-07-09T09:44:19.743Z,23.1
2018-07-09T09:45:28.394Z,23.11
2018-07-09T09:46:37.046Z,23.06
2018-07-09T09:47:45.700Z,23.13
2018-07-09T09:48:54.353Z,22.99
2018-07-09T09:50:02.997Z,22.96
2018-07-09T09:51:11.650Z,22.8
2018-07-09T09:52:20.562Z,22.77
2018-07-09T09:53:29.224Z,22.7
2018-07-09T09:54:37.867Z,22.7
2018-07-09T09:55:46.521Z,22.73
2018-07-09T09:56:55.168Z,22.71
2018-07-09T09:58:03.830Z,22.74
2018-07-09T09:59:12.474Z,22.63
2018-07-09T10:00:21.139Z,22.53
2018-07-09T10:01:30.052Z,22.58
2018-07-09T10:02:38.711Z,22.61
2018-07-09T10:03:47.360Z,22.56
2018-07-09T10:04:56.008Z,22.59
2018-07-09T10:06:04.712Z,22.58
2018-07-09T10:07:13.303Z,22.76
2018-07-09T10:08:22.225Z,22.84
2018-07-09T10:09:30.873Z,22.91
2018-07-09T10:10:39.528Z,23.16
2018-07-09T10:11:48.171Z,23.18
2018-07-09T10:12:56.832Z,23.2
2018-07-09T10:14:05.478Z,23.44
2018-07-09T10:15:14.135Z,23.4
2018-07-09T10:16:22.776Z,23.54
2018-07-09T10:17:31.439Z,23.48
2018-07-09T10:18:40.349Z,23.55
2018-07-09T10:19:49.001Z,23.47
2018-07-09T10:20:57.640Z,23.44
2018-07-09T10:22:06.305Z,23.55
2018-07-09T10:23:15.007Z,23.67
2018-07-09T10:24:23.954Z,23.69
2018-07-09T10:25:32.607Z,23.67
2018-07-09T10:26:41.248Z,23.69
2018-07-09T10:27:49.912Z,23.62
2018-07-09T10:28:58.556Z,23.58
2018-07-09T10:30:07.210Z,23.47
2018-07-09T10:31:15.854Z,23.33
2018-07-09T10:32:24.512Z,23.33
2018-07-09T10:33:33.162Z,23.36
2018-07-09T10:34:41.818Z,23.26
2018-07-09T10:35:50.461Z,23.28
2018-07-09T10:36:59.115Z,23.26
2018-07-09T10:38:07.759Z,23.17
2018-07-09T10:39:16.420Z,23.1
2018-07-09T10:40:25.074Z,22.99
2018-07-09T10:41:33.729Z,22.96
2018-07-09T10:42:42.371Z,22.95
2018-07-09T10:43:51.024Z,22.95
2018-07-09T10:44:59.684Z,22.91
2018-07-09T10:46:08.335Z,22.84
2018-07-09T10:47:16.989Z,22.91
2018-07-09T10:48:25.631Z,22.89
2018-07-09T10:49:34.552Z,22.99
2018-07-09T10:50:43.205Z,22.84
2018-07-09T10:51:51.855Z,22.84
2018-07-09T10:53:00.757Z,22.95
2018-07-09T10:54:09.416Z,22.92
2018-07-09T10:55:18.386Z,22.93
2018-07-09T10:56:27.018Z,22.89
2018-07-09T10:57:35.664Z,22.81
2018-07-09T10:58:44.318Z,22.7
2018-07-09T10:59:53.237Z,22.71
2018-07-09T11:01:01.892Z,22.58
2018-07-09T11:02:10.549Z,22.55
2018-07-09T11:03:19.194Z,22.51
2018-07-09T11:04:27.846Z,22.46
2018-07-09T11:05:36.500Z,22.43
2018-07-09T11:06:45.156Z,22.51
2018-07-09T11:07:53.805Z,22.56
2018-07-09T11:09:02.722Z,22.59
2018-07-09T11:10:11.373Z,22.7
2018-07-09T11:11:20.030Z,22.71
2018-07-09T11:12:28.676Z,22.73
2018-07-09T11:13:37.330Z,22.74
2018-07-09T11:14:46.248Z,22.59
2018-07-09T11:15:54.903Z,22.56
2018-07-09T11:17:03.817Z,22.51
2018-07-09T11:18:12.469Z,22.46
2018-07-09T11:19:21.120Z,22.25
2018-07-09T11:20:29.765Z,22.14
2018-07-09T11:21:38.488Z,22.14
2018-07-09T11:22:47.077Z,22.12
2018-07-09T11:23:55.996Z,22.07
2018-07-09T11:25:04.646Z,22.06
2018-07-09T11:26:13.301Z,21.99
2018-07-09T11:27:21.953Z,22.07
2018-07-09T11:28:30.602Z,21.97
2018-07-09T11:29:39.246Z,22.08
2018-07-09T11:30:47.907Z,22.16
2018-07-09T11:31:57.083Z,22.19
2018-07-09T11:33:05.738Z,22.18
2018-07-09T11:34:14.646Z,22.33
2018-07-09T11:35:23.300Z,22.38
2018-07-09T11:36:31.994Z,22.44
2018-07-09T11:37:40.611Z,22.46
2018-07-09T11:38:49.274Z,22.55
2018-07-09T11:39:57.919Z,22.55
2018-07-09T11:41:06.573Z,22.68
2018-07-09T11:42:15.309Z,22.73
2018-07-09T11:43:23.882Z,22.7
2018-07-09T11:44:32.528Z,22.76
2018-07-09T11:45:41.178Z,22.93
2018-07-09T11:46:49.828Z,23.06
2018-07-09T11:47:58.476Z,23.28
2018-07-09T11:49:07.132Z,23.32
2018-07-09T11:50:15.781Z,23.42
2018-07-09T11:51:24.433Z,23.48
2018-07-09T11:52:33.081Z,23.69
2018-07-09T11:53:41.733Z,23.67
2018-07-09T11:54:50.385Z,23.66
2018-07-09T11:55:59.038Z,23.64
2018-07-09T11:57:07.690Z,23.62
2018-07-09T11:58:16.337Z,23.59
2018-07-09T11:59:24.993Z,23.48
2018-07-09T12:00:33.644Z,23.32
2018-07-09T12:01:42.301Z,23.34
2018-07-09T12:02:50.944Z,23.14
2018-07-09T12:03:59.595Z,23.16
2018-07-09T12:05:08.246Z,23.18
2018-07-09T12:06:16.904Z,23.29
2018-07-09T12:07:25.554Z,23.23
2018-07-09T12:08:34.504Z,23.32
2018-07-09T12:09:43.155Z,23.28
2018-07-09T12:10:51.809Z,23.33
2018-07-09T12:12:00.462Z,23.21
2018-07-09T12:13:09.373Z,23.39
2018-07-09T12:14:18.021Z,23.37
2018-07-09T12:15:26.934Z,23.47
2018-07-09T12:16:35.590Z,23.51
2018-07-09T12:17:44.239Z,23.44
2018-07-09T12:18:52.894Z,23.67
2018-07-09T12:20:02.066Z,23.74
2018-07-09T12:21:10.724Z,23.86
2018-07-09T12:22:19.644Z,23.96
2018-07-09T12:23:28.292Z,24
2018-07-09T12:24:36.943Z,24.04
2018-07-09T12:25:45.603Z,23.99
2018-07-09T12:26:54.519Z,24.06
2018-07-09T12:28:03.170Z,24.06
2018-07-09T12:29:12.195Z,24.01
2018-07-09T12:30:20.740Z,24.09
2018-07-09T12:31:29.393Z,24.16
2018-07-09T12:32:38.053Z,24.25
2018-07-09T12:33:46.702Z,24.37
2018-07-09T12:34:55.350Z,24.4
2018-07-09T12:36:04.306Z,24.43
2018-07-09T12:37:12.924Z,24.34
2018-07-09T12:38:21.581Z,24.47
2018-07-09T12:39:30.228Z,24.5
2018-07-09T12:40:38.874Z,24.65
2018-07-09T12:41:47.532Z,24.74
2018-07-09T12:42:56.189Z,24.75
2018-07-09T12:44:04.833Z,24.82
2018-07-09T12:45:13.486Z,24.77
2018-07-09T12:46:22.406Z,24.78
2018-07-09T12:47:31.067Z,24.63
2018-07-09T12:48:39.718Z,24.69
2018-07-09T12:49:48.442Z,24.63
2018-07-09T12:50:57.024Z,24.68
2018-07-09T12:52:05.671Z,24.79
2018-07-09T12:53:14.334Z,24.92
2018-07-09T12:54:22.982Z,24.86
2018-07-09T12:55:31.642Z,24.97
2018-07-09T12:56:40.291Z,25.18
2018-07-09T12:57:49.315Z,25.31
2018-07-09T12:58:58.016Z,25.52
2018-07-09T13:00:06.674Z,25.54
2018-07-09T13:01:15.315Z,25.73
2018-07-09T13:02:23.977Z,25.71
2018-07-09T13:03:32.627Z,25.61
2018-07-09T13:04:41.282Z,25.46
2018-07-09T13:05:49.931Z,25.33
2018-07-09T13:06:59.196Z,25.26
2018-07-09T13:08:07.817Z,25.22
2018-07-09T13:09:16.468Z,24.97
2018-07-09T13:10:25.126Z,24.86
2018-07-09T13:11:33.768Z,24.75
2018-07-09T13:12:42.427Z,24.63
2018-07-09T13:13:51.339Z,24.61
2018-07-09T13:15:00.000Z,24.53
2018-07-09T13:16:08.646Z,24.51
2018-07-09T13:17:17.303Z,24.5
2018-07-09T13:18:25.950Z,24.4
2018-07-09T13:19:34.611Z,24.19
2018-07-09T13:20:43.518Z,24.19
2018-07-09T13:21:52.174Z,24.11
2018-07-09T13:23:00.826Z,23.92
2018-07-09T13:24:09.485Z,23.82
2018-07-09T13:25:18.142Z,23.88
2018-07-09T13:26:26.788Z,23.82
2018-07-09T13:27:35.441Z,23.74
2018-07-09T13:28:44.085Z,23.77
2018-07-09T13:29:52.746Z,23.89
2018-07-09T13:31:01.701Z,23.88
2018-07-09T13:32:10.312Z,23.88
2018-07-09T13:33:19.219Z,23.82
2018-07-09T13:34:28.148Z,23.76
2018-07-09T13:35:36.797Z,23.81
2018-07-09T13:36:45.458Z,23.67
2018-07-09T13:37:54.201Z,23.82
2018-07-09T13:39:02.762Z,23.85
2018-07-09T13:40:11.412Z,23.81
2018-07-09T13:41:20.065Z,23.88
2018-07-09T13:42:28.714Z,23.96
2018-07-09T13:43:37.373Z,23.92
2018-07-09T13:44:46.016Z,23.85
2018-07-09T13:45:55.192Z,23.94
2018-07-09T13:47:04.117Z,24.01
2018-07-09T13:48:12.764Z,24.13
2018-07-09T13:49:21.417Z,24.24
2018-07-09T13:50:30.069Z,24.26
2018-07-09T13:51:38.728Z,24.31
2018-07-09T13:52:47.377Z,24.43
2018-07-09T13:53:56.035Z,24.46
2018-07-09T13:55:04.689Z,24.44
2018-07-09T13:56:13.345Z,24.44
2018-07-09T13:57:22.000Z,24.58
2018-07-09T13:58:30.657Z,24.56
2018-07-09T13:59:39.305Z,24.65
2018-07-09T14:00:47.963Z,24.61
2018-07-09T14:01:56.877Z,24.51
2018-07-09T14:03:05.532Z,24.43
2018-07-09T14:04:14.248Z,24.31
2018-07-09T14:05:22.836Z,24.24
2018-07-09T14:06:31.491Z,24.1
2018-07-09T14:07:40.148Z,24
2018-07-09T14:08:48.799Z,23.91
2018-07-09T14:09:57.449Z,23.89
2018-07-09T14:11:06.105Z,23.89
2018-07-09T14:12:14.759Z,23.77
2018-07-09T14:13:23.677Z,23.69
2018-07-09T14:14:32.589Z,23.59
2018-07-09T14:15:41.511Z,23.56
2018-07-09T14:16:50.161Z,23.49
2018-07-09T14:17:58.814Z,23.44
2018-07-09T14:19:07.461Z,23.48
2018-07-09T14:20:16.113Z,23.37
2018-07-09T14:21:24.767Z,23.33
2018-07-09T14:22:33.421Z,23.34
2018-07-09T14:23:42.074Z,23.2
2018-07-09T14:24:50.722Z,23.17
2018-07-09T14:25:59.383Z,23.06
2018-07-09T14:27:08.301Z,23.18
2018-07-09T14:28:17.221Z,23.14
2018-07-09T14:29:25.873Z,23.01
2018-07-09T14:30:34.785Z,22.95
2018-07-09T14:31:43.437Z,22.88
2018-07-09T14:32:52.095Z,22.89
2018-07-09T14:34:00.741Z,22.84
2018-07-09T14:35:09.394Z,22.89
2018-07-09T14:36:18.044Z,22.77
2018-07-09T14:37:26.706Z,22.78
2018-07-09T14:38:35.362Z,22.74
2018-07-09T14:39:44.269Z,22.7
2018-07-09T14:40:52.917Z,22.77
2018-07-09T14:42:01.566Z,22.71
2018-07-09T14:43:10.227Z,22.7
2018-07-09T14:44:18.880Z,22.71
2018-07-09T14:45:27.535Z,22.62
2018-07-09T14:46:36.177Z,22.56
2018-07-09T14:47:44.842Z,22.53
2018-07-09T14:48:53.774Z,22.44